Time;durP1;ratioP1;P1;durP2;ratioP2;P2;SDS_P1;SDS_P2;PMS_P1;PMS_P2;Temp;Humidity;BMP_temperature;BMP_pressure;BME280_temperature;BME280_humidity;BME280_pressure;Samples;Min_cycle;Max_cycle;Signal;HPM_P1;HPM_P2
2022/07/25 00:00:43;;;;;;;10.43;8.02;;;19.70;99.90;;;;;;5055110;28;20056;-57
2022/07/25 00:03:09;;;;;;;11.52;8.68;;;19.70;99.90;;;;;;5054815;28;20052;-57
2022/07/25 00:05:35;;;;;;;11.07;8.77;;;19.70;99.90;;;;;;5055122;28;20029;-57
2022/07/25 00:08:01;;;;;;;12.88;9.13;;;19.70;99.90;;;;;;5054983;28;20029;-57
2022/07/25 00:10:27;;;;;;;9.95;7.93;;;19.70;99.90;;;;;;5054919;28;20085;-57
2022/07/25 00:12:53;;;;;;;10.27;8.88;;;19.70;99.90;;;;;;5054919;28;20024;-57
2022/07/25 00:15:18;;;;;;;10.68;8.20;;;19.60;99.90;;;;;;5054959;28;20128;-57
2022/07/25 00:17:44;;;;;;;13.93;8.20;;;19.70;99.90;;;;;;5054833;28;20036;-57
2022/07/25 00:20:11;;;;;;;13.05;8.85;;;19.60;99.90;;;;;;5054825;28;20037;-57
2022/07/25 00:22:36;;;;;;;9.98;7.80;;;19.60;99.90;;;;;;5054588;28;20219;-57
2022/07/25 00:25:03;;;;;;;14.68;8.38;;;19.60;99.90;;;;;;5054972;28;20104;-57
2022/07/25 00:27:29;;;;;;;11.27;8.05;;;19.60;99.90;;;;;;5054732;28;20025;-57
2022/07/25 00:29:54;;;;;;;11.02;8.20;;;19.50;99.90;;;;;;5036739;28;20048;-57
2022/07/25 00:32:20;;;;;;;10.48;8.10;;;19.60;99.90;;;;;;5054703;28;20029;-57
2022/07/25 00:34:46;;;;;;;13.65;8.73;;;19.50;99.90;;;;;;5054691;28;20086;-57
2022/07/25 00:37:12;;;;;;;11.20;8.35;;;19.50;99.90;;;;;;5054802;28;20037;-57
2022/07/25 00:39:38;;;;;;;10.75;8.38;;;19.50;99.90;;;;;;5054615;28;20039;-57
2022/07/25 00:42:04;;;;;;;10.60;8.27;;;19.40;99.90;;;;;;5054504;28;20036;-57
2022/07/25 00:44:31;;;;;;;10.18;6.97;;;19.40;99.90;;;;;;5054576;28;20390;-57
2022/07/25 00:46:58;;;;;;;9.15;7.95;;;19.40;99.90;;;;;;5054385;28;20111;-57
2022/07/25 00:49:25;;;;;;;11.82;7.75;;;19.40;99.90;;;;;;5054553;28;20021;-57
2022/07/25 00:51:52;;;;;;;12.00;8.85;;;19.40;99.90;;;;;;5054274;28;20040;-57
2022/07/25 00:54:19;;;;;;;10.25;8.32;;;19.40;99.90;;;;;;5036636;28;20082;-57
2022/07/25 00:56:45;;;;;;;10.07;8.13;;;19.30;99.90;;;;;;5054294;28;20554;-57
2022/07/25 00:59:11;;;;;;;12.27;7.57;;;19.30;99.90;;;;;;5054248;28;20029;-57
2022/07/25 01:01:38;;;;;;;11.45;8.73;;;19.20;99.90;;;;;;5054511;28;20441;-57
2022/07/25 01:04:05;;;;;;;10.65;8.70;;;19.20;99.90;;;;;;5054309;28;20051;-57
2022/07/25 01:06:31;;;;;;;11.10;8.55;;;19.10;99.90;;;;;;5054019;28;20401;-57
2022/07/25 01:08:58;;;;;;;11.20;8.90;;;19.20;99.90;;;;;;5054431;28;20033;-57
2022/07/25 01:11:25;;;;;;;10.32;9.32;;;19.20;99.90;;;;;;5054225;28;20085;-57
2022/07/25 01:13:51;;;;;;;15.00;8.73;;;19.20;99.90;;;;;;5054178;28;20467;-57
2022/07/25 01:16:17;;;;;;;10.07;8.55;;;19.20;99.90;;;;;;5054211;28;20021;-57
2022/07/25 01:18:43;;;;;;;13.68;9.30;;;19.10;99.90;;;;;;5054179;28;20486;-57
2022/07/25 01:21:09;;;;;;;14.10;9.80;;;19.10;99.90;;;;;;5054040;28;20044;-57
2022/07/25 01:23:36;;;;;;;15.00;10.45;;;19.20;99.90;;;;;;5054166;28;20057;-57
2022/07/25 01:26:02;;;;;;;14.20;10.18;;;19.30;99.90;;;;;;5054242;28;20041;-57
2022/07/25 01:28:28;;;;;;;12.43;9.02;;;19.20;99.90;;;;;;5053934;28;20080;-57
2022/07/25 01:30:54;;;;;;;11.88;9.52;;;19.10;99.90;;;;;;5054007;28;20017;-57
2022/07/25 01:33:21;;;;;;;12.13;9.45;;;19.10;99.90;;;;;;5054025;28;20029;-57
2022/07/25 01:35:48;;;;;;;11.27;9.50;;;19.10;99.90;;;;;;5054013;28;20025;-57
2022/07/25 01:38:14;;;;;;;12.75;9.05;;;19.10;99.90;;;;;;5054010;28;20049;-57
2022/07/25 01:40:40;;;;;;;9.38;7.85;;;19.00;99.90;;;;;;5053923;28;20536;-57
2022/07/25 01:43:07;;;;;;;11.48;8.88;;;18.90;99.90;;;;;;5053897;28;20332;-57
2022/07/25 01:45:33;;;;;;;12.57;8.93;;;18.80;99.90;;;;;;5054370;28;20028;-57
2022/07/25 01:47:59;;;;;;;10.88;8.38;;;18.70;99.90;;;;;;5053692;28;20460;-57
2022/07/25 01:50:25;;;;;;;11.55;8.57;;;18.70;99.90;;;;;;5053855;28;20406;-57
2022/07/25 01:52:51;;;;;;;9.27;8.02;;;18.70;99.90;;;;;;5053972;28;20148;-57
2022/07/25 01:55:17;;;;;;;11.57;8.52;;;18.70;99.90;;;;;;5053849;28;20128;-57
2022/07/25 01:57:43;;;;;;;9.95;7.97;;;18.70;99.90;;;;;;5053737;28;20033;-57
2022/07/25 02:00:12;;;;;;;13.07;8.82;;;18.60;99.90;;;;;;5053669;28;20036;-57
2022/07/25 02:02:40;;;;;;;10.63;8.80;;;18.50;99.90;;;;;;5053512;28;20063;-57
2022/07/25 02:05:07;;;;;;;11.48;8.50;;;18.50;99.90;;;;;;5053919;28;20040;-57
2022/07/25 02:07:33;;;;;;;9.90;8.80;;;18.50;99.90;;;;;;5055263;28;20033;-57
2022/07/25 02:09:59;;;;;;;10.48;8.68;;;18.50;99.90;;;;;;5057268;28;20029;-57
2022/07/25 02:12:25;;;;;;;12.75;8.75;;;18.50;99.90;;;;;;5057221;28;20102;-57
2022/07/25 02:14:51;;;;;;;11.27;9.05;;;18.30;99.90;;;;;;5057121;28;20052;-57
2022/07/25 02:17:18;;;;;;;11.98;9.20;;;18.30;99.90;;;;;;5057284;28;20032;-55
2022/07/25 02:19:44;;;;;;;11.77;9.10;;;18.30;99.90;;;;;;5057081;28;20055;-55
2022/07/25 02:22:10;;;;;;;12.70;9.15;;;18.20;99.90;;;;;;5057067;28;20037;-55
2022/07/25 02:24:36;;;;;;;11.13;9.30;;;18.20;99.90;;;;;;5057027;28;20139;-55
2022/07/25 02:27:03;;;;;;;14.05;9.63;;;18.10;99.90;;;;;;5056914;28;20033;-55
2022/07/25 02:29:29;;;;;;;12.95;9.32;;;18.00;99.90;;;;;;5056990;28;20021;-55
2022/07/25 02:31:55;;;;;;;12.30;10.43;;;18.00;99.90;;;;;;5056794;28;20033;-55
2022/07/25 02:34:21;;;;;;;17.60;11.32;;;18.10;99.90;;;;;;5055662;28;20021;-54
2022/07/25 02:36:47;;;;;;;12.77;10.02;;;18.10;99.90;;;;;;5056827;28;20028;-55
2022/07/25 02:39:13;;;;;;;13.10;11.18;;;18.00;99.90;;;;;;5056665;28;20037;-55
2022/07/25 02:41:39;;;;;;;12.00;9.63;;;18.00;99.90;;;;;;5056785;28;20029;-54
2022/07/25 02:44:05;;;;;;;14.32;9.75;;;18.10;99.90;;;;;;5056770;28;20378;-54
2022/07/25 02:46:32;;;;;;;12.85;9.55;;;18.00;99.90;;;;;;5056422;28;20382;-55
2022/07/25 02:48:58;;;;;;;12.77;10.13;;;17.90;99.90;;;;;;5056654;28;20027;-55
2022/07/25 02:51:24;;;;;;;14.25;10.75;;;18.00;99.90;;;;;;5056528;28;20359;-55
2022/07/25 02:53:50;;;;;;;12.98;10.45;;;17.90;99.90;;;;;;5056661;28;20100;-54
2022/07/25 02:56:17;;;;;;;12.93;10.38;;;17.90;99.90;;;;;;5056593;28;20540;-54
2022/07/25 02:58:44;;;;;;;13.35;10.55;;;17.90;99.90;;;;;;5056521;28;20040;-54
2022/07/25 03:01:10;;;;;;;15.35;10.85;;;17.80;99.90;;;;;;5056312;28;20064;-54
2022/07/25 03:03:36;;;;;;;14.70;10.63;;;17.70;99.90;;;;;;5056521;28;20123;-55
2022/07/25 03:06:02;;;;;;;12.82;10.25;;;17.70;99.90;;;;;;5055109;28;20036;-55
2022/07/25 03:08:28;;;;;;;15.18;9.73;;;17.80;99.90;;;;;;5056184;28;20465;-55
2022/07/25 03:10:53;;;;;;;12.80;10.50;;;17.70;99.90;;;;;;5056122;28;20094;-54
2022/07/25 03:13:19;;;;;;;12.75;10.00;;;17.60;99.90;;;;;;5056353;28;20036;-55
2022/07/25 03:15:45;;;;;;;10.93;9.45;;;17.60;99.90;;;;;;5056102;28;20024;-55
2022/07/25 03:18:11;;;;;;;11.35;10.02;;;17.60;99.90;;;;;;5055982;28;20036;-55
2022/07/25 03:20:37;;;;;;;15.68;10.77;;;17.60;99.90;;;;;;5056120;28;20037;-54
2022/07/25 03:23:03;;;;;;;19.38;11.38;;;17.60;99.90;;;;;;5055881;28;20025;-54
2022/07/25 03:25:29;;;;;;;15.88;11.48;;;17.60;99.90;;;;;;5055931;28;20386;-54
2022/07/25 03:27:55;;;;;;;14.55;9.77;;;17.60;99.90;;;;;;5055745;28;20052;-55
2022/07/25 03:30:21;;;;;;;14.95;11.32;;;17.50;99.90;;;;;;5055725;28;20513;-55
2022/07/25 03:32:47;;;;;;;13.77;10.38;;;17.50;99.90;;;;;;5055884;28;20021;-55
2022/07/25 03:35:14;;;;;;;13.25;9.75;;;17.50;99.90;;;;;;5055934;28;20029;-55
2022/07/25 03:37:40;;;;;;;13.23;11.05;;;17.50;99.90;;;;;;5055590;28;20086;-55
2022/07/25 03:40:07;;;;;;;14.00;9.63;;;17.60;99.90;;;;;;5055625;28;20028;-55
2022/07/25 03:42:33;;;;;;;14.05;10.02;;;17.60;99.90;;;;;;5055604;28;20025;-55
2022/07/25 03:44:58;;;;;;;17.67;10.95;;;17.60;99.90;;;;;;5055667;28;20064;-55
2022/07/25 03:47:24;;;;;;;13.68;10.55;;;17.50;99.90;;;;;;5055274;28;20040;-55
2022/07/25 03:49:50;;;;;;;14.48;10.73;;;17.60;99.90;;;;;;5055456;28;20100;-54
2022/07/25 03:52:16;;;;;;;15.52;10.82;;;17.60;99.90;;;;;;5055392;28;20137;-54
2022/07/25 03:54:42;;;;;;;17.88;11.35;;;17.60;99.90;;;;;;5055258;28;20025;-54
2022/07/25 03:57:09;;;;;;;13.65;11.23;;;17.50;99.90;;;;;;5055220;28;20025;-55
2022/07/25 03:59:35;;;;;;;24.73;11.80;;;17.50;99.90;;;;;;5055179;28;20520;-55
2022/07/25 04:02:01;;;;;;;18.85;11.77;;;17.60;99.90;;;;;;5055229;28;20040;-55
2022/07/25 04:04:27;;;;;;;24.52;12.25;;;17.70;99.90;;;;;;5055025;28;20506;-55
2022/07/25 04:06:52;;;;;;;18.48;12.65;;;17.80;99.90;;;;;;5054908;28;20032;-55
2022/07/25 04:09:18;;;;;;;19.98;12.48;;;17.80;99.90;;;;;;5055154;28;20428;-55
2022/07/25 04:11:44;;;;;;;19.08;12.32;;;18.00;99.90;;;;;;5054980;28;20375;-55
2022/07/25 04:14:10;;;;;;;19.02;11.57;;;18.00;99.90;;;;;;5055030;28;20021;-55
2022/07/25 04:16:36;;;;;;;20.63;11.57;;;17.90;99.90;;;;;;5055202;28;20036;-55
2022/07/25 04:19:03;;;;;;;17.20;11.88;;;17.90;99.90;;;;;;5054956;28;20116;-55
2022/07/25 04:21:29;;;;;;;16.63;11.32;;;17.90;99.90;;;;;;5054989;28;20021;-55
2022/07/25 04:23:55;;;;;;;19.02;10.77;;;18.00;99.90;;;;;;5054750;28;20025;-55
2022/07/25 04:26:21;;;;;;;14.45;10.73;;;18.10;99.90;;;;;;5054722;28;20219;-55
2022/07/25 04:28:47;;;;;;;16.27;11.45;;;18.10;99.90;;;;;;5054783;28;20357;-55
2022/07/25 04:31:13;;;;;;;15.60;10.75;;;18.20;99.90;;;;;;5054290;28;20028;-55
2022/07/25 04:33:39;;;;;;;17.77;11.30;;;18.20;99.90;;;;;;5054658;28;20031;-55
2022/07/25 04:36:06;;;;;;;18.75;11.52;;;18.30;99.90;;;;;;5054560;28;20029;-55
2022/07/25 04:38:32;;;;;;;22.63;11.38;;;18.40;99.90;;;;;;5054483;28;20025;-55
2022/07/25 04:40:58;;;;;;;20.23;9.95;;;18.50;99.90;;;;;;5054460;28;20100;-55
2022/07/25 04:43:24;;;;;;;14.82;10.57;;;18.60;99.90;;;;;;5054460;28;20025;-55
2022/07/25 04:45:50;;;;;;;16.27;10.75;;;18.70;99.90;;;;;;5054435;28;20483;-54
2022/07/25 04:48:16;;;;;;;14.38;11.35;;;18.80;99.90;;;;;;5054543;28;20024;-55
2022/07/25 04:50:43;;;;;;;20.83;12.63;;;18.90;99.90;;;;;;5054464;28;20484;-55
2022/07/25 04:53:08;;;;;;;18.52;11.70;;;19.00;99.90;;;;;;5054416;28;20074;-55
2022/07/25 04:55:35;;;;;;;20.65;12.27;;;19.10;99.90;;;;;;5054323;28;20351;-55
2022/07/25 04:58:01;;;;;;;18.05;12.75;;;19.20;99.90;;;;;;5054226;28;20021;-55
2022/07/25 05:00:27;;;;;;;31.40;13.55;;;19.20;99.90;;;;;;5054243;28;20108;-55
2022/07/25 05:02:53;;;;;;;24.73;14.88;;;19.30;99.90;;;;;;5054338;28;20049;-55
2022/07/25 05:05:20;;;;;;;22.02;13.60;;;19.40;99.90;;;;;;5054146;28;20040;-55
2022/07/25 05:07:46;;;;;;;21.15;13.88;;;19.60;99.90;;;;;;5054112;28;20102;-55
2022/07/25 05:10:12;;;;;;;25.02;14.73;;;19.70;99.90;;;;;;5054094;28;20100;-55
2022/07/25 05:12:38;;;;;;;25.70;13.70;;;19.90;99.90;;;;;;5054051;28;20041;-55
2022/07/25 05:15:05;;;;;;;23.75;13.77;;;19.90;99.90;;;;;;5054131;28;20025;-55
2022/07/25 05:17:30;;;;;;;27.95;13.02;;;20.10;99.90;;;;;;5054095;28;20072;-55
2022/07/25 05:19:57;;;;;;;22.45;13.85;;;20.20;99.90;;;;;;5052236;28;20036;-55
2022/07/25 05:22:24;;;;;;;29.45;14.02;;;20.30;99.90;;;;;;5053783;28;20087;-55
2022/07/25 05:24:50;;;;;;;15.10;11.95;;;20.40;99.90;;;;;;5052147;28;20030;-55
2022/07/25 05:27:16;;;;;;;18.33;12.75;;;20.60;99.90;;;;;;5046760;28;20034;-55
2022/07/25 05:29:42;;;;;;;22.13;11.57;;;20.70;99.90;;;;;;5043995;28;20013;-55
2022/07/25 05:32:08;;;;;;;22.77;11.85;;;20.80;99.90;;;;;;5053924;28;20029;-55
2022/07/25 05:34:33;;;;;;;22.00;12.10;;;20.90;99.90;;;;;;5054051;28;20056;-55
2022/07/25 05:37:00;;;;;;;23.35;13.65;;;21.10;99.90;;;;;;5052094;28;20036;-56
2022/07/25 05:39:26;;;;;;;24.25;13.02;;;21.20;99.90;;;;;;5053552;28;20029;-55
2022/07/25 05:41:51;;;;;;;31.58;13.48;;;21.30;99.90;;;;;;5054359;28;20121;-55
2022/07/25 05:44:17;;;;;;;30.83;13.52;;;21.30;99.90;;;;;;5057251;28;20144;-55
2022/07/25 05:46:49;;;;;;;26.65;13.93;;;21.40;99.90;;;;;;5056251;28;20048;-55
2022/07/25 05:49:18;;;;;;;24.73;13.07;;;21.60;99.90;;;;;;5049290;28;20032;-56
2022/07/25 05:51:44;;;;;;;17.67;12.60;;;21.70;99.90;;;;;;5057451;28;20028;-56
2022/07/25 05:54:10;;;;;;;24.83;13.15;;;21.80;99.90;;;;;;5057567;28;20020;-56
2022/07/25 05:56:36;;;;;;;33.45;15.35;;;22.00;99.90;;;;;;5050727;28;20530;-56
2022/07/25 05:59:02;;;;;;;26.42;15.88;;;22.10;99.90;;;;;;5054134;28;20114;-55
2022/07/25 06:01:28;;;;;;;19.63;11.80;;;22.20;99.90;;;;;;5056504;28;20075;-55
2022/07/25 06:03:54;;;;;;;23.40;13.95;;;22.40;99.90;;;;;;5057167;28;20041;-56
2022/07/25 06:06:19;;;;;;;23.17;12.70;;;22.50;99.90;;;;;;5057194;28;20056;-56
2022/07/25 06:08:45;;;;;;;21.95;13.77;;;22.60;99.90;;;;;;5057205;28;20032;-56
2022/07/25 06:11:11;;;;;;;22.38;12.68;;;22.70;99.90;;;;;;5057443;28;20072;-56
2022/07/25 06:13:38;;;;;;;21.05;12.73;;;22.80;99.90;;;;;;5056665;28;20036;-56
2022/07/25 06:16:10;;;;;;;28.65;13.23;;;23.00;99.90;;;;;;5056077;28;20052;-56
2022/07/25 06:18:36;;;;;;;27.60;14.40;;;23.10;99.90;;;;;;5056389;28;20573;-56
2022/07/25 06:21:02;;;;;;;18.17;12.80;;;23.30;99.90;;;;;;5057016;28;20117;-56
2022/07/25 06:23:29;;;;;;;18.63;12.40;;;23.40;99.90;;;;;;5056979;28;20044;-56
2022/07/25 06:25:55;;;;;;;25.52;13.18;;;23.60;99.20;;;;;;5056819;28;20032;-56
2022/07/25 06:28:21;;;;;;;27.77;14.77;;;23.80;99.10;;;;;;5056540;28;20386;-56
2022/07/25 06:30:47;;;;;;;25.67;13.85;;;23.90;98.70;;;;;;5056470;28;20387;-56
2022/07/25 06:33:13;;;;;;;25.88;14.05;;;23.90;97.60;;;;;;5056436;28;20402;-56
2022/07/25 06:35:39;;;;;;;22.92;13.70;;;24.10;97.50;;;;;;5054763;28;20029;-56
2022/07/25 06:38:05;;;;;;;36.47;13.73;;;24.30;96.90;;;;;;5056225;28;20089;-56
2022/07/25 06:40:30;;;;;;;18.50;12.90;;;24.50;96.80;;;;;;5055519;28;20107;-56
2022/07/25 06:42:56;;;;;;;25.38;13.70;;;24.60;95.50;;;;;;5056267;28;20036;-56
2022/07/25 06:45:22;;;;;;;26.35;13.82;;;24.70;95.00;;;;;;5054842;28;20021;-56
2022/07/25 06:47:49;;;;;;;21.30;12.48;;;24.90;94.60;;;;;;5053076;28;20029;-56
2022/07/25 06:50:17;;;;;;;30.48;13.18;;;25.10;93.50;;;;;;5050195;28;20375;-56
2022/07/25 06:52:44;;;;;;;24.95;13.75;;;25.30;93.20;;;;;;5050073;28;20067;-56
2022/07/25 06:55:11;;;;;;;23.40;12.43;;;25.40;92.50;;;;;;5048982;28;20056;-57
2022/07/25 06:57:37;;;;;;;29.27;12.93;;;25.60;91.50;;;;;;5054298;28;20047;-56
2022/07/25 07:00:07;;;;;;;19.75;12.18;;;25.80;91.80;;;;;;5038515;28;20029;-56
2022/07/25 07:02:45;;;;;;;36.95;15.32;;;26.00;90.80;;;;;;5055777;28;20037;-56
2022/07/25 07:05:11;;;;;;;31.33;14.23;;;26.10;88.30;;;;;;5055630;28;20037;-56
2022/07/25 07:07:37;;;;;;;28.33;13.30;;;26.30;86.00;;;;;;5056191;28;20040;-56
2022/07/25 07:10:03;;;;;;;20.83;12.32;;;26.50;85.70;;;;;;5056137;28;20029;-57
2022/07/25 07:12:29;;;;;;;26.15;13.02;;;26.80;83.60;;;;;;5054722;28;20029;-57
2022/07/25 07:14:55;;;;;;;17.98;10.95;;;26.80;78.90;;;;;;5029134;28;20028;-56
2022/07/25 07:17:21;;;;;;;16.10;11.38;;;27.10;80.10;;;;;;5054893;28;20033;-57
2022/07/25 07:19:47;;;;;;;24.55;12.07;;;27.50;78.20;;;;;;5055869;28;20036;-57
2022/07/25 07:22:13;;;;;;;32.13;13.68;;;27.80;74.60;;;;;;5055334;28;20041;-57
2022/07/25 07:24:39;;;;;;;26.88;14.15;;;28.20;73.50;;;;;;5056202;28;20068;-57
2022/07/25 07:27:04;;;;;;;24.35;14.52;;;28.30;71.30;;;;;;5055753;28;20029;-56
2022/07/25 07:29:30;;;;;;;22.85;12.90;;;28.60;70.20;;;;;;5055541;28;20033;-57
2022/07/25 07:31:56;;;;;;;30.73;14.10;;;28.80;67.00;;;;;;5055464;28;20025;-57
2022/07/25 07:34:22;;;;;;;28.90;13.68;;;29.00;66.00;;;;;;5055805;28;20090;-57
2022/07/25 07:36:48;;;;;;;23.40;13.02;;;29.20;65.10;;;;;;5054964;28;20036;-57
2022/07/25 07:39:15;;;;;;;21.13;12.50;;;29.60;64.40;;;;;;5055359;28;20108;-57
2022/07/25 07:41:41;;;;;;;30.27;13.10;;;29.70;60.70;;;;;;5055398;28;20032;-57
2022/07/25 07:44:07;;;;;;;21.20;11.80;;;30.20;59.90;;;;;;5055068;28;20020;-57
2022/07/25 07:46:33;;;;;;;31.33;13.57;;;30.30;57.80;;;;;;5055048;28;20134;-57
2022/07/25 07:48:58;;;;;;;24.60;12.13;;;30.60;57.60;;;;;;5055067;28;20044;-57
2022/07/25 07:51:24;;;;;;;22.15;11.65;;;30.90;56.80;;;;;;5055081;28;20028;-57
2022/07/25 07:56:34;;;;;;;15.77;9.25;;;31.30;51.40;;;;;;5051805;28;20028;-57
2022/07/25 07:59:00;;;;;;;14.38;8.93;;;31.60;49.30;;;;;;5054398;28;20467;-57
2022/07/25 08:01:26;;;;;;;18.45;9.25;;;31.90;47.80;;;;;;5054468;28;20108;-57
2022/07/25 08:03:52;;;;;;;28.25;10.05;;;32.10;48.50;;;;;;5054259;28;20076;-57
2022/07/25 08:06:18;;;;;;;19.02;8.27;;;32.20;46.40;;;;;;5053941;28;20037;-57
2022/07/25 08:08:44;;;;;;;12.43;6.35;;;32.20;43.80;;;;;;5054840;28;20360;-57
2022/07/25 08:11:11;;;;;;;11.45;7.25;;;32.50;42.80;;;;;;5054961;28;20033;-57
2022/07/25 08:13:37;;;;;;;16.25;7.80;;;32.70;41.70;;;;;;5053473;28;20033;-57
2022/07/25 08:16:04;;;;;;;13.38;6.85;;;33.10;43.30;;;;;;5054800;28;20402;-57
2022/07/25 08:18:33;;;;;;;15.00;6.93;;;33.40;41.00;;;;;;5054757;28;20386;-57
2022/07/25 08:21:02;;;;;;;38.17;9.23;;;33.50;38.90;;;;;;5054425;28;20095;-57
2022/07/25 08:23:28;;;;;;;16.92;8.18;;;33.60;39.80;;;;;;5054941;28;21136;-57
2022/07/25 08:25:54;;;;;;;21.90;9.50;;;33.90;37.70;;;;;;5054689;28;20048;-57
2022/07/25 08:28:20;;;;;;;15.30;8.02;;;34.20;37.40;;;;;;5054487;28;20092;-57
2022/07/25 08:30:46;;;;;;;23.30;9.35;;;34.20;39.10;;;;;;5054065;28;20430;-57
2022/07/25 08:33:14;;;;;;;21.13;9.70;;;33.80;36.60;;;;;;5054609;28;20056;-57
2022/07/25 08:35:45;;;;;;;21.17;9.10;;;34.00;37.90;;;;;;5053441;28;20381;-57
2022/07/25 08:38:12;;;;;;;21.95;7.90;;;33.90;36.90;;;;;;5054455;28;20025;-57
2022/07/25 08:40:38;;;;;;;37.88;9.70;;;33.50;37.10;;;;;;5053469;28;20502;-57
2022/07/25 08:43:05;;;;;;;30.58;10.50;;;33.60;36.60;;;;;;5041878;28;20029;-57
2022/07/25 08:45:32;;;;;;;16.95;7.05;;;34.10;37.80;;;;;;5054131;28;20043;-57
2022/07/25 08:47:58;;;;;;;23.70;8.23;;;34.40;35.20;;;;;;5053092;28;20075;-57
2022/07/25 08:50:27;;;;;;;12.13;6.63;;;34.70;33.30;;;;;;5053958;28;20487;-57
2022/07/25 08:52:53;;;;;;;15.73;6.72;;;34.20;32.10;;;;;;5054031;28;20481;-57
2022/07/25 08:55:22;;;;;;;11.38;6.70;;;34.20;32.50;;;;;;5049254;28;20017;-57
2022/07/25 08:57:50;;;;;;;10.52;6.07;;;34.70;32.30;;;;;;5052904;28;20052;-57
2022/07/25 09:00:22;;;;;;;11.82;6.18;;;34.90;31.10;;;;;;5053366;28;20036;-57
2022/07/25 09:02:53;;;;;;;11.40;6.00;;;34.50;30.90;;;;;;5034148;28;20398;-57
2022/07/25 09:05:23;;;;;;;14.52;6.82;;;35.00;32.50;;;;;;5052721;28;20025;-57
2022/07/25 09:07:50;;;;;;;15.00;7.03;;;35.60;31.50;;;;;;5053738;28;20637;-57
2022/07/25 09:10:19;;;;;;;13.32;7.07;;;34.80;31.90;;;;;;5053926;28;20032;-57
2022/07/25 09:12:56;;;;;;;22.90;7.50;;;34.20;32.60;;;;;;5052089;28;20025;-57
2022/07/25 09:15:28;;;;;;;17.40;7.25;;;35.00;33.40;;;;;;5044907;28;20242;-57
2022/07/25 09:17:56;;;;;;;23.30;9.25;;;35.40;32.00;;;;;;5057213;28;20037;-57
2022/07/25 09:20:22;;;;;;;14.05;6.53;;;35.80;31.30;;;;;;5057833;28;20027;-57
2022/07/25 09:22:48;;;;;;;17.80;6.32;;;35.80;31.40;;;;;;5057427;28;20021;-57
2022/07/25 09:25:25;;;;;;;18.52;6.18;;;36.40;30.70;;;;;;5055736;28;20100;-57
2022/07/25 09:27:51;;;;;;;20.08;6.85;;;36.70;29.80;;;;;;5038207;28;20060;-57
2022/07/25 09:30:17;;;;;;;10.63;5.90;;;36.90;29.80;;;;;;5038125;28;20017;-57
2022/07/25 09:32:43;;;;;;;10.60;5.78;;;36.80;28.90;;;;;;5038133;28;20025;-57
2022/07/25 09:35:10;;;;;;;14.02;6.43;;;36.10;29.40;;;;;;5037922;28;20032;-57
2022/07/25 09:37:36;;;;;;;15.88;7.38;;;36.30;29.20;;;;;;5037789;28;20060;-57
2022/07/25 09:40:13;;;;;;;10.18;5.95;;;36.70;29.90;;;;;;5037803;28;20026;-57
2022/07/25 09:42:41;;;;;;;9.73;5.30;;;36.90;29.10;;;;;;5037579;28;20096;-57
2022/07/25 09:45:14;;;;;;;13.00;5.53;;;36.70;28.30;;;;;;5037740;28;20511;-57
2022/07/25 09:48:03;;;;;;;14.32;5.53;;;36.20;28.80;;;;;;5037702;28;20053;-57
2022/07/25 09:50:32;;;;;;;12.98;5.95;;;36.40;28.80;;;;;;5037693;28;20546;-57
2022/07/25 09:53:01;;;;;;;9.70;5.53;;;36.50;28.80;;;;;;5037563;28;20034;-57
2022/07/25 09:55:28;;;;;;;29.88;7.75;;;36.80;29.50;;;;;;5037200;28;20028;-57
2022/07/25 09:57:54;;;;;;;25.95;8.20;;;36.70;28.70;;;;;;5043506;28;20039;-57
2022/07/25 10:00:24;;;;;;;18.63;6.40;;;36.70;29.10;;;;;;5057493;28;20482;-57
2022/07/25 10:03:13;;;;;;;9.93;5.00;;;37.30;29.10;;;;;;5053978;28;20049;-57
2022/07/25 10:06:06;;;;;;;24.50;7.97;;;37.80;28.50;;;;;;5056630;28;20123;-57
2022/07/25 10:08:37;;;;;;;7.18;5.43;;;37.30;27.90;;;;;;5054560;28;20036;-57
2022/07/25 10:11:08;;;;;;;16.55;6.45;;;36.40;27.60;;;;;;5055472;28;20454;-57
2022/07/25 10:13:35;;;;;;;6.93;5.00;;;37.10;28.50;;;;;;5049486;28;20029;-57
2022/07/25 10:16:01;;;;;;;18.95;6.07;;;36.00;28.70;;;;;;5056932;28;20025;-57
2022/07/25 10:18:29;;;;;;;16.25;6.45;;;36.70;27.90;;;;;;5056014;28;20035;-57
2022/07/25 10:21:09;;;;;;;23.45;7.00;;;36.90;29.00;;;;;;5056939;28;20025;-57
2022/07/25 10:23:45;;;;;;;5.57;4.70;;;37.00;27.70;;;;;;5055959;28;20467;-57
2022/07/25 10:26:15;;;;;;;8.25;5.63;;;37.30;27.50;;;;;;5034219;28;20038;-57
2022/07/25 10:28:46;;;;;;;5.53;4.40;;;37.70;27.30;;;;;;5045742;28;20024;-57
2022/07/25 10:31:15;;;;;;;28.80;7.47;;;37.50;27.30;;;;;;5035858;28;20037;-57
2022/07/25 10:33:42;;;;;;;12.25;5.47;;;37.60;27.30;;;;;;5036424;28;20049;-58
2022/07/25 10:36:09;;;;;;;14.02;5.40;;;37.10;27.40;;;;;;5036871;28;20030;-58
2022/07/25 10:38:41;;;;;;;8.63;4.75;;;37.60;28.00;;;;;;5047107;28;20040;-58
2022/07/25 10:41:09;;;;;;;11.18;4.47;;;38.40;26.20;;;;;;5023072;28;20025;-58
2022/07/25 10:43:39;;;;;;;7.57;4.35;;;38.40;26.80;;;;;;5056442;28;20463;-58
2022/07/25 10:46:19;;;;;;;5.70;4.38;;;38.50;25.50;;;;;;5056639;28;20029;-58
2022/07/25 10:48:55;;;;;;;;;;;38.20;25.40;;;;;;5056110;28;20025;-58
2022/07/25 10:51:26;;;;;;;18.38;5.80;;;38.50;26.10;;;;;;5056403;28;19909;-58
2022/07/25 10:53:52;;;;;;;7.85;5.07;;;35.50;28.40;;;;;;5056141;28;20025;-58
2022/07/25 10:56:21;;;;;;;5.45;4.22;;;36.50;28.80;;;;;;5056460;28;20075;-58
2022/07/25 10:58:49;;;;;;;6.75;4.78;;;37.40;27.70;;;;;;5056347;28;20112;-58
2022/07/25 11:01:28;;;;;;;17.40;6.43;;;37.80;26.50;;;;;;5056288;28;20017;-58
2022/07/25 11:03:57;;;;;;;12.27;5.60;;;37.50;26.90;;;;;;5056020;28;20448;-58
2022/07/25 11:06:36;;;;;;;21.13;6.40;;;37.70;26.90;;;;;;5056075;28;20025;-58
2022/07/25 11:09:21;;;;;;;17.52;5.60;;;38.10;26.20;;;;;;5056014;28;20036;-58
2022/07/25 11:11:49;;;;;;;10.52;5.15;;;38.00;26.10;;;;;;5056114;28;20021;-58
2022/07/25 11:14:34;;;;;;;7.85;5.05;;;38.20;25.70;;;;;;5055247;28;20051;-58
2022/07/25 11:17:15;;;;;;;8.52;4.18;;;38.60;25.10;;;;;;5053252;28;20104;-58
2022/07/25 11:19:57;;;;;;;5.43;3.90;;;38.90;24.90;;;;;;5053384;28;20021;-58
2022/07/25 11:22:24;;;;;;;10.50;4.60;;;39.00;24.40;;;;;;5055646;28;20471;-58
2022/07/25 11:24:50;;;;;;;25.55;6.72;;;39.10;24.20;;;;;;5055748;28;20025;-58
2022/07/25 11:27:30;;;;;;;8.60;4.45;;;38.80;24.10;;;;;;5055750;28;20036;-58
2022/07/25 11:30:11;;;;;;;10.52;4.63;;;39.20;23.90;;;;;;5055772;28;20021;-58
2022/07/25 11:32:48;;;;;;;15.20;6.22;;;38.60;24.70;;;;;;5055662;28;20025;-58
2022/07/25 11:35:15;;;;;;;4.10;3.50;;;39.00;23.60;;;;;;5055472;28;20017;-58
2022/07/25 11:37:47;;;;;;;6.13;4.53;;;39.10;23.20;;;;;;5055348;28;20394;-58
2022/07/25 11:40:15;;;;;;;9.98;4.13;;;39.60;22.70;;;;;;5046885;28;20030;-58
2022/07/25 11:42:43;;;;;;;7.40;4.38;;;39.60;22.60;;;;;;5053694;28;20035;-58
2022/07/25 11:45:38;;;;;;;4.82;3.92;;;39.90;23.70;;;;;;5054971;28;20651;-58
2022/07/25 11:48:06;;;;;;;7.85;4.07;;;39.90;23.50;;;;;;5051171;28;20044;-58
2022/07/25 11:50:35;;;;;;;5.97;3.92;;;39.60;23.40;;;;;;5055287;28;20376;-58
2022/07/25 11:53:04;;;;;;;6.85;3.78;;;39.90;22.50;;;;;;5043580;28;20033;-58
2022/07/25 11:55:35;;;;;;;5.43;3.53;;;40.00;22.80;;;;;;5036179;28;20109;-58
2022/07/25 11:58:03;;;;;;;10.93;4.90;;;40.10;22.80;;;;;;5044881;28;20061;-58
2022/07/25 12:00:29;;;;;;;6.05;3.60;;;39.70;22.40;;;;;;5035717;28;20033;-58
2022/07/25 12:03:07;;;;;;;10.00;4.50;;;40.10;22.00;;;;;;5052239;28;20490;-58
2022/07/25 12:05:33;;;;;;;7.20;3.53;;;40.10;21.90;;;;;;5041630;28;20038;-58
2022/07/25 12:08:08;;;;;;;23.90;6.10;;;40.10;21.60;;;;;;5035152;28;20383;-58
2022/07/25 12:10:35;;;;;;;9.77;4.50;;;39.20;22.10;;;;;;5035172;28;20025;-58
2022/07/25 12:13:03;;;;;;;11.13;4.55;;;38.90;23.00;;;;;;5035005;28;20092;-58
2022/07/25 12:15:39;;;;;;;10.98;4.82;;;37.20;24.20;;;;;;5035064;28;20061;-58
2022/07/25 12:18:11;;;;;;;17.45;6.63;;;38.40;23.10;;;;;;5034934;28;20021;-58
2022/07/25 12:20:39;;;;;;;5.85;4.00;;;38.00;23.00;;;;;;5035295;28;20025;-58
2022/07/25 12:23:08;;;;;;;7.63;4.13;;;38.70;22.70;;;;;;5034655;28;20320;-58
2022/07/25 12:25:38;;;;;;;9.18;5.40;;;38.80;22.40;;;;;;5035056;28;20026;-58
2022/07/25 12:28:05;;;;;;;8.93;3.58;;;37.90;22.80;;;;;;5037752;28;20029;-58
2022/07/25 12:30:32;;;;;;;18.20;4.72;;;38.00;23.20;;;;;;5044206;28;20033;-58
2022/07/25 12:32:59;;;;;;;9.50;5.55;;;38.20;23.20;;;;;;5044713;28;20039;-58
2022/07/25 12:35:26;;;;;;;10.23;3.85;;;38.40;23.00;;;;;;5025970;28;20026;-58
2022/07/25 12:38:00;;;;;;;9.50;4.03;;;39.10;22.50;;;;;;5047867;28;20055;-58